createdAt,value
2023-05-13T00:01:39.225Z,11.77
2023-05-13T00:04:28.642Z,11.75
2023-05-13T00:07:15.910Z,11.95
2023-05-13T00:10:05.552Z,12.30
2023-05-13T00:12:54.982Z,12.80
2023-05-13T00:15:42.400Z,11.02
2023-05-13T00:18:31.030Z,12.15
2023-05-13T00:21:18.888Z,12.80
2023-05-13T00:24:07.020Z,12.35
2023-05-13T00:26:54.625Z,13.27
2023-05-13T00:29:41.803Z,13.13
2023-05-13T00:32:31.811Z,14.77
2023-05-13T00:35:19.083Z,13.85
2023-05-13T00:38:07.214Z,14.13
2023-05-13T00:40:54.563Z,13.55
2023-05-13T00:43:42.062Z,13.02
2023-05-13T00:46:34.781Z,13.38
2023-05-13T00:52:09.252Z,12.60
2023-05-13T00:54:56.440Z,13.00
2023-05-13T00:57:45.164Z,12.90
2023-05-13T01:00:37.534Z,12.27
2023-05-13T01:03:50.556Z,11.73
2023-05-13T01:06:57.978Z,12.35
2023-05-13T01:10:12.192Z,11.18
2023-05-13T01:13:04.185Z,10.73
2023-05-13T01:16:09.750Z,11.10
2023-05-13T01:19:09.704Z,10.20
2023-05-13T01:21:56.933Z,10.68
2023-05-13T01:24:45.829Z,10.50
2023-05-13T01:27:33.165Z,9.65
2023-05-13T01:30:21.236Z,9.52
2023-05-13T01:33:08.909Z,9.63
2023-05-13T01:35:56.928Z,9.10
2023-05-13T01:38:45.007Z,9.57
2023-05-13T01:41:32.620Z,8.48
2023-05-13T01:44:22.233Z,9.13
2023-05-13T01:47:09.476Z,8.18
2023-05-13T01:49:58.721Z,8.43
2023-05-13T01:52:46.280Z,8.60
2023-05-13T01:55:33.464Z,9.30
2023-05-13T01:58:20.809Z,7.75
2023-05-13T02:01:08.108Z,8.50
2023-05-13T02:03:56.990Z,8.80
2023-05-13T02:06:44.275Z,9.65
2023-05-13T02:09:31.492Z,7.90
2023-05-13T02:12:18.649Z,7.82
2023-05-13T02:15:07.479Z,7.95
2023-05-13T02:17:54.860Z,8.20
2023-05-13T02:20:48.081Z,9.00
2023-05-13T02:23:36.011Z,8.73
2023-05-13T02:26:23.329Z,9.07
2023-05-13T02:29:10.589Z,9.02
2023-05-13T02:31:57.799Z,8.85
2023-05-13T02:34:45.105Z,8.55
2023-05-13T02:37:32.265Z,9.82
2023-05-13T02:40:19.689Z,9.60
2023-05-13T02:43:07.861Z,9.85
2023-05-13T02:45:55.044Z,9.18
2023-05-13T02:48:44.593Z,10.57
2023-05-13T02:51:31.756Z,10.85
2023-05-13T02:54:18.953Z,11.40
2023-05-13T02:57:06.535Z,11.48
2023-05-13T02:59:53.667Z,11.30
2023-05-13T03:02:41.221Z,10.57
2023-05-13T03:05:30.973Z,11.93
2023-05-13T03:08:18.187Z,11.15
2023-05-13T03:11:07.615Z,10.52
2023-05-13T03:13:54.768Z,10.27
2023-05-13T03:16:45.271Z,10.95
2023-05-13T03:19:37.659Z,10.38
2023-05-13T03:22:24.900Z,9.38
2023-05-13T03:25:12.290Z,10.30
2023-05-13T03:27:59.944Z,10.32
2023-05-13T03:30:50.119Z,9.80
2023-05-13T03:33:37.861Z,9.77
2023-05-13T03:36:25.560Z,9.60
2023-05-13T03:39:12.702Z,9.07
2023-05-13T03:42:03.271Z,9.20
2023-05-13T03:44:52.956Z,8.25
2023-05-13T03:47:40.273Z,8.60
2023-05-13T03:50:27.541Z,8.38
2023-05-13T03:53:14.764Z,7.90
2023-05-13T03:56:01.985Z,7.50
2023-05-13T03:58:51.350Z,7.40
2023-05-13T04:01:38.597Z,7.45
2023-05-13T04:04:26.061Z,7.90
2023-05-13T04:07:17.008Z,7.25
2023-05-13T04:10:04.613Z,7.03
2023-05-13T04:12:52.000Z,6.32
2023-05-13T04:15:39.420Z,6.47
2023-05-13T04:18:26.580Z,7.50
2023-05-13T04:21:16.843Z,5.97
2023-05-13T04:24:04.243Z,7.63
2023-05-13T04:26:54.439Z,7.00
2023-05-13T04:29:41.744Z,6.80
2023-05-13T04:32:30.258Z,6.75
2023-05-13T04:35:17.542Z,6.00
2023-05-13T04:38:05.853Z,6.55
2023-05-13T04:40:53.151Z,6.15
2023-05-13T04:43:40.517Z,6.47
2023-05-13T04:46:27.725Z,6.30
2023-05-13T04:49:15.062Z,5.95
2023-05-13T04:52:06.037Z,5.95
2023-05-13T04:54:53.374Z,6.30
2023-05-13T04:57:43.570Z,6.05
2023-05-13T05:00:30.949Z,5.88
2023-05-13T05:03:18.245Z,5.93
2023-05-13T05:06:05.498Z,6.82
2023-05-13T05:08:52.758Z,5.68
2023-05-13T05:11:42.142Z,6.50
2023-05-13T05:14:29.407Z,5.90
2023-05-13T05:17:18.879Z,5.82
2023-05-13T05:20:06.608Z,5.50
2023-05-13T05:22:53.878Z,5.50
2023-05-13T05:25:43.500Z,6.38
2023-05-13T05:28:31.187Z,5.60
2023-05-13T05:31:18.621Z,5.45
2023-05-13T05:34:05.882Z,5.25
2023-05-13T05:36:55.003Z,4.63
2023-05-13T05:39:42.333Z,5.20
2023-05-13T05:42:29.518Z,5.20
2023-05-13T05:45:19.704Z,5.03
2023-05-13T05:48:10.528Z,5.25
2023-05-13T05:50:58.138Z,5.28
2023-05-13T05:53:46.263Z,5.22
2023-05-13T05:56:33.500Z,4.65
2023-05-13T05:59:20.978Z,4.80
2023-05-13T06:02:08.912Z,4.40
2023-05-13T06:04:56.189Z,4.63
2023-05-13T06:07:49.799Z,4.75
2023-05-13T06:10:38.625Z,4.60
2023-05-13T06:13:26.258Z,4.65
2023-05-13T06:16:16.431Z,4.55
2023-05-13T06:19:03.967Z,4.40
2023-05-13T06:21:51.336Z,4.28
2023-05-13T06:24:45.174Z,4.40
2023-05-13T06:27:36.453Z,4.70
2023-05-13T06:30:23.884Z,4.20
2023-05-13T06:33:12.858Z,4.72
2023-05-13T06:36:00.252Z,4.50
2023-05-13T06:38:48.200Z,3.80
2023-05-13T06:41:35.791Z,4.00
2023-05-13T06:44:23.446Z,4.03
2023-05-13T06:47:14.877Z,4.53
2023-05-13T06:50:06.353Z,4.40
2023-05-13T06:53:33.300Z,4.32
2023-05-13T06:56:24.072Z,4.55
2023-05-13T06:59:13.202Z,4.40
2023-05-13T07:02:00.666Z,4.57
2023-05-13T07:04:49.446Z,4.22
2023-05-13T07:07:36.757Z,4.43
2023-05-13T07:10:24.250Z,4.57
2023-05-13T07:13:13.197Z,4.68
2023-05-13T07:16:01.094Z,4.60
2023-05-13T07:18:48.476Z,5.50
2023-05-13T07:21:35.792Z,4.88
2023-05-13T07:24:22.975Z,5.15
2023-05-13T07:27:10.561Z,4.65
2023-05-13T07:29:58.253Z,4.70
2023-05-13T07:32:45.697Z,4.90
2023-05-13T07:35:33.294Z,4.80
2023-05-13T07:38:20.706Z,4.75
2023-05-13T07:41:08.257Z,4.43
2023-05-13T07:43:57.816Z,4.82
2023-05-13T07:46:45.243Z,5.20
2023-05-13T07:49:32.862Z,4.30
2023-05-13T07:52:20.304Z,5.05
2023-05-13T07:55:11.917Z,4.85
2023-05-13T07:57:59.262Z,4.70
2023-05-13T08:00:46.630Z,4.45
2023-05-13T08:03:36.856Z,5.35
2023-05-13T08:06:27.333Z,5.43
2023-05-13T08:09:15.290Z,4.03
2023-05-13T08:12:05.017Z,4.50
2023-05-13T08:14:52.351Z,7.68
2023-05-13T08:17:40.769Z,6.15
2023-05-13T08:20:30.153Z,5.55
2023-05-13T08:23:28.317Z,4.75
2023-05-13T08:26:27.013Z,4.75
2023-05-13T08:29:16.063Z,5.43
2023-05-13T08:32:03.853Z,4.82
2023-05-13T08:34:56.544Z,4.95
2023-05-13T08:37:53.540Z,4.75
2023-05-13T08:40:45.873Z,5.25
2023-05-13T08:43:34.224Z,5.63
2023-05-13T08:46:30.463Z,4.97
2023-05-13T08:49:20.754Z,5.65
2023-05-13T08:52:09.061Z,5.70
2023-05-13T08:55:00.248Z,5.38
2023-05-13T08:57:49.435Z,5.57
2023-05-13T09:00:37.294Z,5.95
2023-05-13T09:03:30.779Z,5.78
2023-05-13T09:06:19.002Z,5.47
2023-05-13T09:09:06.676Z,5.45
2023-05-13T09:11:54.398Z,5.57
2023-05-13T09:14:42.353Z,4.82
2023-05-13T09:17:31.022Z,4.78
2023-05-13T09:20:20.200Z,4.90
2023-05-13T09:23:11.628Z,4.55
2023-05-13T09:25:59.164Z,4.18
2023-05-13T09:29:18.216Z,4.43
2023-05-13T09:32:10.005Z,4.93
2023-05-13T09:34:57.318Z,4.80
2023-05-13T09:37:48.404Z,5.07
2023-05-13T09:40:37.949Z,5.03
2023-05-13T09:43:34.541Z,5.05
2023-05-13T09:46:26.042Z,5.18
2023-05-13T09:49:15.173Z,5.28
2023-05-13T09:52:10.134Z,4.78
2023-05-13T09:54:59.228Z,5.07
2023-05-13T09:57:47.496Z,4.75
2023-05-13T10:03:25.456Z,5.00
2023-05-13T10:06:13.825Z,4.80
2023-05-13T10:09:07.235Z,4.45
2023-05-13T10:11:58.989Z,4.18
2023-05-13T10:14:46.833Z,4.40
2023-05-13T10:17:36.966Z,4.05
2023-05-13T10:20:26.891Z,4.40
2023-05-13T10:23:15.966Z,4.25
2023-05-13T10:26:04.152Z,4.28
2023-05-13T10:28:52.861Z,4.05
2023-05-13T10:31:41.112Z,3.80
2023-05-13T10:34:29.580Z,3.70
2023-05-13T10:37:25.874Z,3.72
2023-05-13T10:40:37.085Z,3.50
2023-05-13T10:43:28.942Z,3.97
2023-05-13T10:46:19.285Z,3.88
2023-05-13T10:49:13.814Z,3.70
2023-05-13T10:52:14.366Z,3.40
2023-05-13T10:55:02.794Z,3.33
2023-05-13T10:58:15.281Z,3.70
2023-05-13T11:01:33.747Z,3.58
2023-05-13T11:04:21.675Z,3.28
2023-05-13T11:07:16.813Z,3.40
2023-05-13T11:10:10.143Z,3.55
2023-05-13T11:13:17.990Z,3.50
2023-05-13T11:16:09.145Z,4.28
2023-05-13T11:18:56.606Z,4.97
2023-05-13T11:21:50.751Z,3.35
2023-05-13T11:24:38.944Z,3.70
2023-05-13T11:27:26.227Z,3.53
2023-05-13T11:30:27.736Z,3.33
2023-05-13T11:33:17.005Z,4.18
2023-05-13T11:36:08.779Z,3.60
2023-05-13T11:39:08.446Z,3.47
2023-05-13T11:42:03.932Z,3.25
2023-05-13T11:44:51.927Z,3.42
2023-05-13T11:47:39.236Z,3.20
2023-05-13T11:50:31.003Z,3.72
2023-05-13T11:53:23.934Z,3.95
2023-05-13T11:56:13.117Z,3.60
2023-05-13T11:59:20.740Z,3.63
2023-05-13T12:02:08.184Z,3.40
2023-05-13T12:04:56.328Z,3.38
2023-05-13T12:07:47.915Z,4.07
2023-05-13T12:10:36.078Z,4.20
2023-05-13T12:13:23.393Z,4.38
2023-05-13T12:16:15.963Z,4.70
2023-05-13T12:19:09.498Z,3.85
2023-05-13T12:21:56.892Z,4.43
2023-05-13T12:24:44.407Z,4.45
2023-05-13T12:27:31.987Z,4.60
2023-05-13T12:30:19.683Z,4.78
2023-05-13T12:33:19.279Z,3.85
2023-05-13T12:36:34.048Z,4.60
2023-05-13T12:39:21.418Z,4.00
2023-05-13T12:42:18.746Z,4.68
2023-05-13T12:45:06.769Z,3.92
2023-05-13T12:47:56.714Z,3.97
2023-05-13T12:50:44.128Z,4.60
2023-05-13T12:53:31.347Z,4.43
2023-05-13T12:56:19.284Z,4.55
2023-05-13T12:59:09.278Z,4.10
2023-05-13T13:01:57.568Z,4.25
2023-05-13T13:04:44.733Z,3.90
2023-05-13T13:07:32.001Z,4.50
2023-05-13T13:10:19.946Z,4.05
2023-05-13T13:13:08.928Z,4.07
2023-05-13T13:15:56.356Z,3.80
2023-05-13T13:18:43.690Z,3.80
2023-05-13T13:21:35.531Z,3.83
2023-05-13T13:24:22.740Z,4.23
2023-05-13T13:27:11.985Z,4.00
2023-05-13T13:29:59.255Z,3.53
2023-05-13T13:32:46.552Z,4.25
2023-05-13T13:35:36.061Z,3.78
2023-05-13T13:38:23.384Z,3.72
2023-05-13T13:41:10.713Z,4.20
2023-05-13T13:43:57.842Z,4.40
2023-05-13T13:46:45.018Z,5.10
2023-05-13T13:49:32.257Z,4.38
2023-05-13T13:52:19.767Z,4.90
2023-05-13T13:55:07.688Z,3.50
2023-05-13T13:57:56.114Z,3.53
2023-05-13T14:00:43.333Z,3.20
2023-05-13T14:03:32.535Z,3.70
2023-05-13T14:06:22.586Z,3.33
2023-05-13T14:09:10.724Z,3.45
2023-05-13T14:11:58.137Z,2.95
2023-05-13T14:14:45.284Z,3.53
2023-05-13T14:17:33.571Z,3.78
2023-05-13T14:20:22.376Z,4.03
2023-05-13T14:23:09.890Z,3.95
2023-05-13T14:25:57.086Z,3.92
2023-05-13T14:28:44.848Z,4.10
2023-05-13T14:31:32.126Z,3.50
2023-05-13T14:34:21.720Z,3.47
2023-05-13T14:37:09.439Z,4.40
2023-05-13T14:39:56.895Z,4.32
2023-05-13T14:42:47.017Z,4.63
2023-05-13T14:45:36.861Z,4.38
2023-05-13T14:48:27.389Z,3.80
2023-05-13T14:51:14.734Z,3.97
2023-05-13T14:54:03.840Z,3.85
2023-05-13T14:56:54.385Z,4.53
2023-05-13T14:59:41.591Z,4.53
2023-05-13T15:02:31.306Z,4.30
2023-05-13T15:05:18.901Z,4.13
2023-05-13T15:08:10.162Z,4.00
2023-05-13T15:10:59.009Z,4.80
2023-05-13T15:13:46.209Z,4.70
2023-05-13T15:16:33.581Z,4.25
2023-05-13T15:19:23.381Z,4.22
2023-05-13T15:22:13.092Z,4.22
2023-05-13T15:25:02.649Z,5.05
2023-05-13T15:27:51.520Z,5.30
2023-05-13T15:30:38.711Z,4.63
2023-05-13T15:33:28.642Z,5.18
2023-05-13T15:36:15.806Z,4.75
2023-05-13T15:39:03.053Z,5.07
2023-05-13T15:41:52.810Z,4.40
2023-05-13T15:44:40.139Z,4.25
2023-05-13T15:47:27.935Z,4.20
2023-05-13T15:50:15.516Z,4.90
2023-05-13T15:53:02.689Z,4.88
2023-05-13T15:55:49.918Z,5.07
2023-05-13T15:58:37.241Z,5.72
2023-05-13T16:01:24.475Z,4.97
2023-05-13T16:04:14.741Z,5.95
2023-05-13T16:07:02.309Z,5.00
2023-05-13T16:09:52.017Z,4.78
2023-05-13T16:12:39.241Z,4.55
2023-05-13T16:15:26.581Z,4.60
2023-05-13T16:18:15.252Z,5.38
2023-05-13T16:21:11.161Z,4.93
2023-05-13T16:23:59.724Z,4.38
2023-05-13T16:26:47.284Z,5.30
2023-05-13T16:29:37.022Z,4.40
2023-05-13T16:32:32.375Z,4.57
2023-05-13T16:35:20.651Z,5.28
2023-05-13T16:38:08.409Z,4.93
2023-05-13T16:40:55.593Z,5.82
2023-05-13T16:43:43.302Z,7.45
2023-05-13T16:46:35.560Z,6.50
2023-05-13T16:49:23.243Z,5.45
2023-05-13T16:52:10.544Z,8.32
2023-05-13T16:55:00.046Z,8.93
2023-05-13T16:57:47.332Z,6.07
2023-05-13T17:00:34.549Z,6.53
2023-05-13T17:03:21.902Z,6.05
2023-05-13T17:06:11.780Z,5.82
2023-05-13T17:15:20.180Z,5.38
2023-05-13T17:18:07.448Z,5.38
2023-05-13T17:20:54.961Z,4.88
2023-05-13T17:23:42.289Z,5.30
2023-05-13T17:26:38.227Z,5.25
2023-05-13T17:29:26.055Z,4.68
2023-05-13T17:32:13.605Z,5.88
2023-05-13T17:35:05.473Z,5.88
2023-05-13T17:37:57.830Z,4.28
2023-05-13T17:40:45.146Z,5.68
2023-05-13T17:43:33.137Z,5.25
2023-05-13T17:46:20.775Z,5.57
2023-05-13T17:49:08.145Z,5.72
2023-05-13T17:51:55.803Z,5.78
2023-05-13T17:54:43.052Z,7.97
2023-05-13T17:57:31.950Z,7.95
2023-05-13T18:00:20.763Z,6.43
2023-05-13T18:03:08.253Z,5.93
2023-05-13T18:05:55.774Z,5.75
2023-05-13T18:08:43.158Z,5.75
2023-05-13T18:11:31.213Z,6.20
2023-05-13T18:14:19.052Z,6.07
2023-05-13T18:17:06.347Z,5.70
2023-05-13T18:19:56.080Z,5.57
2023-05-13T18:22:43.453Z,5.97
2023-05-13T18:25:42.460Z,5.30
2023-05-13T18:28:35.894Z,5.38
2023-05-13T18:31:23.553Z,5.97
2023-05-13T18:34:12.012Z,5.47
2023-05-13T18:36:59.490Z,5.85
2023-05-13T18:39:49.391Z,5.22
2023-05-13T18:42:36.670Z,5.53
2023-05-13T18:45:24.059Z,5.95
2023-05-13T18:48:11.621Z,6.25
2023-05-13T18:50:59.287Z,6.13
2023-05-13T18:53:49.208Z,5.90
2023-05-13T18:56:37.146Z,6.50
2023-05-13T18:59:24.380Z,6.15
2023-05-13T19:02:13.201Z,6.45
2023-05-13T19:05:01.341Z,6.70
2023-05-13T19:07:52.967Z,6.85
2023-05-13T19:10:41.126Z,6.85
2023-05-13T19:13:36.265Z,7.25
2023-05-13T19:16:33.738Z,7.15
2023-05-13T19:19:23.680Z,7.15
2023-05-13T19:22:11.122Z,6.80
2023-05-13T19:24:58.386Z,6.88
2023-05-13T19:27:51.174Z,6.55
2023-05-13T19:30:43.329Z,6.75
2023-05-13T19:33:46.204Z,8.82
2023-05-13T19:36:52.987Z,8.02
2023-05-13T19:39:52.200Z,8.13
2023-05-13T19:42:42.064Z,7.75
2023-05-13T19:45:33.018Z,9.10
2023-05-13T19:48:37.439Z,9.32
2023-05-13T19:54:53.707Z,10.05
2023-05-13T19:57:43.191Z,10.05
2023-05-13T20:00:30.652Z,10.77
2023-05-13T20:03:18.365Z,12.65
2023-05-13T20:06:07.111Z,10.75
2023-05-13T20:08:56.762Z,10.57
2023-05-13T20:11:44.346Z,10.48
2023-05-13T20:14:45.821Z,9.40
2023-05-13T20:17:33.149Z,9.07
2023-05-13T20:20:21.579Z,8.95
2023-05-13T20:23:09.338Z,8.80
2023-05-13T20:25:59.863Z,9.35
2023-05-13T20:28:47.936Z,9.52
2023-05-13T20:31:35.395Z,9.93
2023-05-13T20:34:23.777Z,10.40
2023-05-13T20:37:11.287Z,10.05
2023-05-13T20:39:58.938Z,9.52
2023-05-13T20:42:48.374Z,11.13
2023-05-13T20:45:39.309Z,14.80
2023-05-13T20:48:26.845Z,14.57
2023-05-13T20:51:14.252Z,15.02
2023-05-13T20:54:03.717Z,14.70
2023-05-13T20:56:51.020Z,13.95
2023-05-13T20:59:40.633Z,12.20
2023-05-13T21:02:27.919Z,12.27
2023-05-13T21:05:15.229Z,11.48
2023-05-13T21:08:07.081Z,10.82
2023-05-13T21:10:56.645Z,10.80
2023-05-13T21:13:44.987Z,11.20
2023-05-13T21:16:32.422Z,11.05
2023-05-13T21:19:22.804Z,11.55
2023-05-13T21:22:10.589Z,12.80
2023-05-13T21:24:58.280Z,13.85
2023-05-13T21:27:47.760Z,13.30
2023-05-13T21:30:35.031Z,13.40
2023-05-13T21:33:22.542Z,13.38
2023-05-13T21:36:09.874Z,13.38
2023-05-13T21:38:57.760Z,13.77
2023-05-13T21:41:45.480Z,13.88
2023-05-13T21:44:32.720Z,15.10
2023-05-13T21:47:19.949Z,15.82
2023-05-13T21:50:08.558Z,16.70
2023-05-13T21:52:55.879Z,16.00
2023-05-13T21:55:44.741Z,16.88
2023-05-13T21:58:34.676Z,16.83
2023-05-13T22:01:22.264Z,17.65
2023-05-13T22:04:09.542Z,17.27
2023-05-13T22:06:56.964Z,17.45
2023-05-13T22:09:44.281Z,18.55
2023-05-13T22:12:31.675Z,16.65
2023-05-13T22:15:26.604Z,18.13
2023-05-13T22:18:19.381Z,17.55
2023-05-13T22:21:12.300Z,17.85
2023-05-13T22:23:59.617Z,16.67
2023-05-13T22:26:49.258Z,16.83
2023-05-13T22:29:37.052Z,16.83
2023-05-13T22:32:26.645Z,16.25
2023-05-13T22:35:14.327Z,16.38
2023-05-13T22:38:02.219Z,17.48
2023-05-13T22:40:52.050Z,17.08
2023-05-13T22:43:41.739Z,17.50
2023-05-13T22:46:31.274Z,16.17
2023-05-13T22:49:18.567Z,15.70
2023-05-13T22:52:06.436Z,15.75
2023-05-13T22:54:54.011Z,15.90
2023-05-13T22:57:41.320Z,16.13
2023-05-13T23:00:32.192Z,16.70
2023-05-13T23:03:21.574Z,16.50
2023-05-13T23:06:10.285Z,17.05
2023-05-13T23:08:57.760Z,17.05
2023-05-13T23:11:45.321Z,16.17
2023-05-13T23:14:32.529Z,16.40
2023-05-13T23:17:19.726Z,15.48
2023-05-13T23:20:07.607Z,15.13
2023-05-13T23:22:56.357Z,14.93
2023-05-13T23:25:47.530Z,14.63
2023-05-13T23:28:34.868Z,16.38
2023-05-13T23:31:32.962Z,15.35
2023-05-13T23:34:23.271Z,16.00
2023-05-13T23:37:15.581Z,15.25
2023-05-13T23:40:04.479Z,15.65
2023-05-13T23:42:52.939Z,16.08
2023-05-13T23:45:42.717Z,15.75
2023-05-13T23:48:33.148Z,15.32
2023-05-13T23:51:21.011Z,15.05
2023-05-13T23:54:11.106Z,16.33
2023-05-13T23:57:00.794Z,15.65
2023-05-13T23:59:48.465Z,16.13
